createdAt,value
2022-11-27T00:02:13.129Z,87.58
2022-11-27T00:04:44.347Z,87.64
2022-11-27T00:07:15.329Z,87.61
2022-11-27T00:09:46.497Z,87.63
2022-11-27T00:12:17.567Z,87.99
2022-11-27T00:14:53.396Z,88.36
2022-11-27T00:17:26.330Z,88.06
2022-11-27T00:19:57.149Z,88.14
2022-11-27T00:22:28.077Z,88.16
2022-11-27T00:24:59.064Z,88.07
2022-11-27T00:27:30.098Z,88.03
2022-11-27T00:30:01.247Z,88.09
2022-11-27T00:32:32.383Z,88.12
2022-11-27T00:35:03.505Z,88.35
2022-11-27T00:37:34.571Z,88.13
2022-11-27T00:40:06.951Z,88.26
2022-11-27T00:42:37.739Z,88.49
2022-11-27T00:45:10.215Z,88.43
2022-11-27T00:47:41.272Z,88.38
2022-11-27T00:50:13.475Z,88.47
2022-11-27T00:52:44.665Z,88.61
2022-11-27T00:55:16.201Z,88.47
2022-11-27T00:57:45.671Z,88.47
2022-11-27T01:00:18.691Z,88.48
2022-11-27T01:02:49.738Z,88.56
2022-11-27T01:05:20.957Z,88.68
2022-11-27T01:07:51.879Z,88.78
2022-11-27T01:10:22.881Z,88.72
2022-11-27T01:12:53.922Z,88.71
2022-11-27T01:15:25.056Z,88.73
2022-11-27T01:17:55.821Z,88.82
2022-11-27T01:20:26.901Z,88.68
2022-11-27T01:22:57.965Z,88.75
2022-11-27T01:25:28.913Z,88.72
2022-11-27T01:28:00.297Z,88.39
2022-11-27T01:30:31.456Z,88.53
2022-11-27T01:33:01.292Z,88.65
2022-11-27T01:35:33.799Z,88.71
2022-11-27T01:38:05.099Z,88.90
2022-11-27T01:40:36.328Z,88.73
2022-11-27T01:43:12.675Z,88.67
2022-11-27T01:45:44.638Z,88.67
2022-11-27T01:48:16.723Z,88.56
2022-11-27T01:50:47.796Z,88.33
2022-11-27T01:53:20.665Z,88.29
2022-11-27T01:55:57.224Z,88.36
2022-11-27T01:58:31.347Z,88.42
2022-11-27T02:01:02.776Z,88.48
2022-11-27T02:03:34.538Z,88.60
2022-11-27T02:06:05.964Z,88.67
2022-11-27T02:08:36.936Z,88.62
2022-11-27T02:11:14.630Z,88.50
2022-11-27T02:13:45.188Z,88.65
2022-11-27T02:16:23.338Z,88.71
2022-11-27T02:19:01.594Z,88.49
2022-11-27T02:21:41.070Z,88.54
2022-11-27T02:24:42.690Z,88.32
2022-11-27T02:27:34.391Z,88.44
2022-11-27T02:30:08.915Z,88.63
2022-11-27T02:32:44.786Z,88.69
2022-11-27T02:35:21.853Z,88.63
2022-11-27T02:38:01.410Z,88.63
2022-11-27T02:40:38.756Z,88.46
2022-11-27T02:43:13.390Z,88.38
2022-11-27T02:45:46.926Z,88.55
2022-11-27T02:48:21.137Z,88.76
2022-11-27T02:50:54.593Z,88.65
2022-11-27T02:53:29.684Z,88.84
2022-11-27T02:56:01.617Z,88.73
2022-11-27T02:58:33.753Z,88.60
2022-11-27T03:01:07.310Z,88.66
2022-11-27T03:03:42.948Z,88.42
2022-11-27T03:06:17.072Z,88.56
2022-11-27T03:08:55.603Z,88.26
2022-11-27T03:11:30.863Z,88.12
2022-11-27T03:14:06.601Z,88.32
2022-11-27T03:16:41.927Z,88.27
2022-11-27T03:19:20.036Z,87.99
2022-11-27T03:21:54.681Z,88.03
2022-11-27T03:24:25.913Z,88.14
2022-11-27T03:26:58.232Z,87.98
2022-11-27T03:29:35.973Z,87.84
2022-11-27T03:32:08.295Z,87.92
2022-11-27T03:34:40.749Z,87.75
2022-11-27T03:37:11.905Z,87.65
2022-11-27T03:39:43.286Z,87.72
2022-11-27T03:42:23.985Z,87.78
2022-11-27T03:45:02.246Z,87.73
2022-11-27T03:47:46.260Z,87.58
2022-11-27T03:50:19.921Z,87.44
2022-11-27T03:53:01.975Z,87.70
2022-11-27T03:55:44.485Z,87.80
2022-11-27T03:58:22.772Z,87.78
2022-11-27T04:00:55.265Z,87.77
2022-11-27T04:03:29.608Z,87.66
2022-11-27T04:06:00.895Z,87.59
2022-11-27T04:08:31.904Z,87.60
2022-11-27T04:11:03.006Z,87.51
2022-11-27T04:13:34.044Z,87.35
2022-11-27T04:16:05.459Z,87.31
2022-11-27T04:18:36.531Z,87.52
2022-11-27T04:21:08.157Z,87.43
2022-11-27T04:23:38.717Z,87.58
2022-11-27T04:26:09.817Z,87.40
2022-11-27T04:28:40.762Z,87.46
2022-11-27T04:31:11.635Z,87.53
2022-11-27T04:33:42.686Z,87.84
2022-11-27T04:36:14.086Z,88.09
2022-11-27T04:38:45.275Z,87.98
2022-11-27T04:41:16.509Z,87.95
2022-11-27T04:43:47.488Z,88.14
2022-11-27T04:46:18.340Z,88.17
2022-11-27T04:48:49.341Z,88.36
2022-11-27T04:51:20.523Z,88.45
2022-11-27T04:53:51.550Z,88.67
2022-11-27T04:56:22.737Z,88.54
2022-11-27T04:58:52.492Z,88.68
2022-11-27T05:01:23.591Z,88.65
2022-11-27T05:03:54.513Z,88.55
2022-11-27T05:06:25.419Z,88.64
2022-11-27T05:09:00.131Z,88.52
2022-11-27T05:11:32.359Z,88.62
2022-11-27T05:14:20.050Z,88.48
2022-11-27T05:16:52.781Z,88.56
2022-11-27T05:19:26.297Z,88.46
2022-11-27T05:21:57.288Z,88.38
2022-11-27T05:24:29.792Z,88.36
2022-11-27T05:27:00.835Z,88.26
2022-11-27T05:29:32.580Z,88.16
2022-11-27T05:32:03.596Z,88.24
2022-11-27T05:34:35.016Z,88.14
2022-11-27T05:37:06.369Z,88.31
2022-11-27T05:39:37.321Z,88.18
2022-11-27T05:42:08.863Z,88.38
2022-11-27T05:44:40.187Z,88.35
2022-11-27T05:47:11.770Z,88.41
2022-11-27T05:49:42.630Z,88.47
2022-11-27T05:52:13.526Z,88.48
2022-11-27T05:54:44.585Z,88.58
2022-11-27T05:57:15.481Z,88.40
2022-11-27T05:59:46.453Z,88.18
2022-11-27T06:02:22.630Z,88.11
2022-11-27T06:04:56.148Z,88.10
2022-11-27T06:07:27.242Z,87.99
2022-11-27T06:09:56.710Z,88.26
2022-11-27T06:12:27.855Z,88.38
2022-11-27T06:14:58.904Z,88.35
2022-11-27T06:17:29.887Z,88.39
2022-11-27T06:20:01.161Z,88.33
2022-11-27T06:22:33.114Z,88.66
2022-11-27T06:25:04.591Z,88.88
2022-11-27T06:27:37.226Z,88.85
2022-11-27T06:30:10.458Z,88.80
2022-11-27T06:32:41.424Z,88.67
2022-11-27T06:35:12.755Z,88.79
2022-11-27T06:37:42.094Z,88.74
2022-11-27T06:40:13.834Z,88.74
2022-11-27T06:42:44.672Z,88.64
2022-11-27T06:45:15.555Z,88.55
2022-11-27T06:47:46.582Z,88.55
2022-11-27T06:50:17.570Z,88.50
2022-11-27T06:52:48.417Z,88.58
2022-11-27T06:55:19.520Z,88.66
2022-11-27T06:57:52.453Z,88.62
2022-11-27T07:00:23.618Z,88.50
2022-11-27T07:02:56.285Z,88.68
2022-11-27T07:05:27.828Z,88.81
2022-11-27T07:07:59.360Z,88.91
2022-11-27T07:10:30.503Z,88.98
2022-11-27T07:13:01.536Z,89.13
2022-11-27T07:15:33.525Z,89.14
2022-11-27T07:18:04.835Z,89.14
2022-11-27T07:20:36.237Z,89.15
2022-11-27T07:23:07.188Z,89.06
2022-11-27T07:25:39.791Z,88.98
2022-11-27T07:28:13.575Z,89.12
2022-11-27T07:30:47.165Z,88.99
2022-11-27T07:33:18.034Z,88.84
2022-11-27T07:35:48.786Z,88.84
2022-11-27T07:38:19.624Z,88.78
2022-11-27T07:40:50.524Z,88.80
2022-11-27T07:43:21.606Z,88.85
2022-11-27T07:45:51.129Z,88.87
2022-11-27T07:48:22.160Z,88.90
2022-11-27T07:50:53.179Z,88.84
2022-11-27T07:53:24.046Z,88.98
2022-11-27T07:55:55.068Z,88.94
2022-11-27T07:58:25.926Z,88.96
2022-11-27T08:00:56.842Z,88.94
2022-11-27T08:03:28.485Z,88.82
2022-11-27T08:05:59.292Z,88.83
2022-11-27T08:08:30.602Z,88.73
2022-11-27T08:11:01.744Z,88.71
2022-11-27T08:13:32.650Z,88.66
2022-11-27T08:16:03.734Z,88.67
2022-11-27T08:18:34.801Z,88.62
2022-11-27T08:21:06.073Z,88.79
2022-11-27T08:23:36.867Z,88.76
2022-11-27T08:26:12.377Z,88.64
2022-11-27T08:28:43.575Z,88.45
2022-11-27T08:31:14.231Z,88.37
2022-11-27T08:33:45.307Z,88.18
2022-11-27T08:36:18.366Z,88.22
2022-11-27T08:38:49.657Z,87.99
2022-11-27T08:41:20.728Z,88.07
2022-11-27T08:43:51.647Z,88.06
2022-11-27T08:46:22.711Z,87.96
2022-11-27T08:48:53.790Z,87.92
2022-11-27T08:51:24.693Z,87.91
2022-11-27T08:53:55.978Z,88.06
2022-11-27T08:56:26.142Z,87.94
2022-11-27T08:58:57.304Z,87.79
2022-11-27T09:01:30.030Z,87.95
2022-11-27T09:04:01.305Z,87.91
2022-11-27T09:06:31.730Z,87.67
2022-11-27T09:09:05.046Z,87.52
2022-11-27T09:11:37.428Z,87.50
2022-11-27T09:14:09.004Z,87.38
2022-11-27T09:16:40.108Z,87.44
2022-11-27T09:19:11.272Z,87.39
2022-11-27T09:21:42.190Z,87.43
2022-11-27T09:24:13.283Z,87.34
2022-11-27T09:26:44.771Z,87.18
2022-11-27T09:29:15.830Z,87.18
2022-11-27T09:31:46.786Z,87.04
2022-11-27T09:34:18.401Z,87.04
2022-11-27T09:36:50.704Z,86.87
2022-11-27T09:39:22.844Z,86.83
2022-11-27T09:41:56.557Z,86.73
2022-11-27T09:44:35.688Z,86.73
2022-11-27T09:47:17.626Z,86.62
2022-11-27T09:49:52.698Z,86.43
2022-11-27T09:52:30.792Z,86.38
2022-11-27T09:55:07.115Z,86.57
2022-11-27T09:57:41.770Z,86.35
2022-11-27T10:00:18.687Z,86.12
2022-11-27T10:02:49.133Z,85.96
2022-11-27T10:05:24.712Z,85.88
2022-11-27T10:08:14.682Z,85.63
2022-11-27T10:10:51.372Z,85.62
2022-11-27T10:13:34.732Z,85.74
2022-11-27T10:16:11.075Z,85.49
2022-11-27T10:18:46.682Z,85.33
2022-11-27T10:21:26.004Z,85.40
2022-11-27T10:24:05.697Z,85.19
2022-11-27T10:26:42.030Z,85.25
2022-11-27T10:29:31.701Z,85.22
2022-11-27T10:32:05.806Z,85.10
2022-11-27T10:34:43.637Z,85.13
2022-11-27T10:37:20.628Z,85.00
2022-11-27T10:39:55.301Z,84.99
2022-11-27T10:42:31.236Z,84.99
2022-11-27T10:47:53.017Z,84.77
2022-11-27T10:50:24.265Z,84.82
2022-11-27T10:53:00.048Z,84.64
2022-11-27T10:55:44.214Z,84.71
2022-11-27T10:58:24.244Z,84.36
2022-11-27T11:01:05.458Z,84.10
2022-11-27T11:03:36.966Z,84.40
2022-11-27T11:06:21.991Z,84.69
2022-11-27T11:09:05.370Z,84.61
2022-11-27T11:11:36.398Z,84.43
2022-11-27T11:14:18.868Z,84.25
2022-11-27T11:16:50.764Z,84.07
2022-11-27T11:19:33.023Z,84.10
2022-11-27T11:22:15.687Z,84.19
2022-11-27T11:24:51.343Z,84.25
2022-11-27T11:27:26.484Z,83.88
2022-11-27T11:30:00.796Z,83.69
2022-11-27T11:32:34.425Z,83.71
2022-11-27T11:35:09.869Z,83.59
2022-11-27T11:37:45.608Z,83.71
2022-11-27T11:40:27.874Z,83.60
2022-11-27T11:43:01.097Z,83.48
2022-11-27T11:45:33.730Z,83.53
2022-11-27T11:48:21.601Z,83.24
2022-11-27T11:50:56.855Z,83.47
2022-11-27T11:53:35.855Z,83.57
2022-11-27T11:56:19.252Z,83.54
2022-11-27T11:58:58.345Z,83.72
2022-11-27T12:01:48.226Z,83.80
2022-11-27T12:04:39.834Z,83.83
2022-11-27T12:07:21.660Z,84.01
2022-11-27T12:09:58.620Z,83.94
2022-11-27T12:12:45.462Z,83.78
2022-11-27T12:15:23.585Z,83.76
2022-11-27T12:18:02.499Z,83.75
2022-11-27T12:20:48.667Z,83.52
2022-11-27T12:23:52.925Z,83.49
2022-11-27T12:26:33.652Z,83.36
2022-11-27T12:29:21.001Z,83.40
2022-11-27T12:32:16.122Z,83.42
2022-11-27T12:34:57.721Z,83.57
2022-11-27T12:37:44.588Z,83.81
2022-11-27T12:40:29.598Z,83.83
2022-11-27T12:43:15.347Z,84.02
2022-11-27T12:45:50.166Z,83.86
2022-11-27T12:48:27.052Z,83.84
2022-11-27T12:51:02.396Z,83.94
2022-11-27T12:53:40.502Z,83.68
2022-11-27T12:56:17.306Z,83.67
2022-11-27T12:58:51.651Z,83.61
2022-11-27T13:01:29.025Z,83.49
2022-11-27T13:04:14.631Z,83.48
2022-11-27T13:06:56.460Z,83.35
2022-11-27T13:09:38.940Z,83.41
2022-11-27T13:12:10.529Z,83.33
2022-11-27T13:14:47.511Z,83.38
2022-11-27T13:17:22.009Z,83.31
2022-11-27T13:19:53.743Z,83.08
2022-11-27T13:22:29.614Z,82.99
2022-11-27T13:25:03.993Z,83.03
2022-11-27T13:27:37.385Z,82.50
2022-11-27T13:30:19.786Z,82.12
2022-11-27T13:32:53.912Z,82.09
2022-11-27T13:35:30.984Z,82.21
2022-11-27T13:38:09.898Z,82.43
2022-11-27T13:40:44.317Z,82.46
2022-11-27T13:43:29.583Z,82.70
2022-11-27T13:46:11.935Z,82.94
2022-11-27T13:48:45.162Z,83.08
2022-11-27T13:51:27.470Z,83.08
2022-11-27T13:54:10.319Z,83.19
2022-11-27T13:56:41.390Z,83.39
2022-11-27T13:59:21.015Z,83.41
2022-11-27T14:01:59.891Z,83.41
2022-11-27T14:04:35.215Z,83.10
2022-11-27T14:07:10.033Z,83.12
2022-11-27T14:09:45.807Z,83.24
2022-11-27T14:12:25.424Z,83.20
2022-11-27T14:15:07.740Z,83.08
2022-11-27T14:17:41.943Z,82.91
2022-11-27T14:20:29.856Z,82.90
2022-11-27T14:23:17.538Z,82.91
2022-11-27T14:25:48.630Z,82.77
2022-11-27T14:28:25.961Z,82.88
2022-11-27T14:30:59.305Z,82.96
2022-11-27T14:33:47.439Z,82.95
2022-11-27T14:36:28.272Z,82.73
2022-11-27T14:39:01.076Z,82.73
2022-11-27T14:41:32.349Z,82.50
2022-11-27T14:44:04.331Z,82.53
2022-11-27T14:46:37.777Z,82.41
2022-11-27T14:49:18.394Z,82.42
2022-11-27T14:51:51.404Z,82.41
2022-11-27T14:54:26.874Z,82.54
2022-11-27T14:56:58.426Z,82.45
2022-11-27T14:59:29.430Z,82.52
2022-11-27T15:02:04.180Z,82.83
2022-11-27T15:04:39.207Z,83.01
2022-11-27T15:07:17.268Z,83.21
2022-11-27T15:09:50.161Z,83.18
2022-11-27T15:12:23.287Z,83.24
2022-11-27T15:14:59.352Z,83.29
2022-11-27T15:17:32.940Z,83.34
2022-11-27T15:20:11.309Z,83.36
2022-11-27T15:22:48.729Z,83.53
2022-11-27T15:25:34.709Z,83.88
2022-11-27T15:28:20.847Z,84.34
2022-11-27T15:30:52.327Z,84.88
2022-11-27T15:33:31.945Z,85.08
2022-11-27T15:36:23.113Z,85.16
2022-11-27T15:39:04.777Z,85.24
2022-11-27T15:41:40.827Z,85.31
2022-11-27T15:44:14.345Z,85.08
2022-11-27T15:46:45.542Z,84.81
2022-11-27T15:49:15.999Z,84.82
2022-11-27T15:51:46.787Z,85.07
2022-11-27T15:54:18.193Z,85.13
2022-11-27T15:56:49.189Z,85.14
2022-11-27T15:59:21.171Z,85.22
2022-11-27T16:01:52.735Z,85.35
2022-11-27T16:04:23.854Z,85.49
2022-11-27T16:06:54.800Z,85.42
2022-11-27T16:09:25.798Z,85.63
2022-11-27T16:11:57.151Z,85.83
2022-11-27T16:14:27.968Z,85.73
2022-11-27T16:17:00.583Z,85.30
2022-11-27T16:19:31.645Z,84.92
2022-11-27T16:22:02.867Z,84.90
2022-11-27T16:24:34.074Z,84.93
2022-11-27T16:27:04.964Z,84.80
2022-11-27T16:29:36.095Z,84.75
2022-11-27T16:32:09.216Z,84.95
2022-11-27T16:34:40.597Z,84.85
2022-11-27T16:37:17.007Z,84.68
2022-11-27T16:39:49.142Z,84.85
2022-11-27T16:42:20.119Z,84.65
2022-11-27T16:44:51.287Z,84.68
2022-11-27T16:47:22.088Z,84.42
2022-11-27T16:49:53.207Z,84.50
2022-11-27T16:52:24.434Z,84.37
2022-11-27T16:54:55.023Z,84.41
2022-11-27T16:57:26.097Z,84.39
2022-11-27T16:59:57.457Z,84.59
2022-11-27T17:02:28.970Z,84.51
2022-11-27T17:05:00.543Z,84.54
2022-11-27T17:07:32.343Z,84.45
2022-11-27T17:10:01.614Z,84.64
2022-11-27T17:12:33.318Z,84.59
2022-11-27T17:15:04.450Z,84.33
2022-11-27T17:17:39.886Z,84.65
2022-11-27T17:20:12.058Z,84.55
2022-11-27T17:22:42.929Z,84.69
2022-11-27T17:25:14.116Z,84.61
2022-11-27T17:27:44.982Z,84.44
2022-11-27T17:30:16.890Z,84.48
2022-11-27T17:32:48.078Z,84.72
2022-11-27T17:35:19.131Z,84.75
2022-11-27T17:37:49.917Z,84.88
2022-11-27T17:40:21.048Z,85.05
2022-11-27T17:42:51.939Z,84.91
2022-11-27T17:45:22.931Z,85.03
2022-11-27T17:47:53.783Z,84.83
2022-11-27T17:50:24.527Z,85.07
2022-11-27T17:52:56.236Z,85.00
2022-11-27T17:55:27.198Z,85.33
2022-11-27T17:57:58.092Z,85.34
2022-11-27T18:00:29.263Z,85.30
2022-11-27T18:03:03.429Z,85.49
2022-11-27T18:05:40.564Z,85.35
2022-11-27T18:08:11.378Z,85.50
2022-11-27T18:10:42.409Z,85.29
2022-11-27T18:13:13.679Z,85.52
2022-11-27T18:15:44.585Z,85.77
2022-11-27T18:18:15.742Z,85.59
2022-11-27T18:20:47.087Z,85.67
2022-11-27T18:23:16.466Z,85.57
2022-11-27T18:25:49.072Z,85.54
2022-11-27T18:28:20.123Z,85.66
2022-11-27T18:30:51.307Z,85.66
2022-11-27T18:33:22.048Z,85.73
2022-11-27T18:35:54.995Z,85.56
2022-11-27T18:38:25.867Z,85.48
2022-11-27T18:40:57.204Z,85.50
2022-11-27T18:43:28.081Z,85.46
2022-11-27T18:45:59.332Z,85.28
2022-11-27T18:48:29.098Z,85.32
2022-11-27T18:51:06.325Z,85.46
2022-11-27T18:53:38.263Z,85.59
2022-11-27T18:56:12.265Z,85.68
2022-11-27T18:58:44.579Z,85.76
2022-11-27T19:01:18.996Z,85.56
2022-11-27T19:03:50.485Z,85.67
2022-11-27T19:06:23.781Z,85.75
2022-11-27T19:08:55.270Z,85.59
2022-11-27T19:11:28.752Z,85.45
2022-11-27T19:14:00.724Z,85.70
2022-11-27T19:16:34.117Z,85.62
2022-11-27T19:19:06.382Z,85.28
2022-11-27T19:21:37.583Z,85.16
2022-11-27T19:24:09.549Z,85.23
2022-11-27T19:26:40.602Z,85.30
2022-11-27T19:29:13.796Z,85.35
2022-11-27T19:31:45.080Z,85.36
2022-11-27T19:34:16.443Z,85.52
2022-11-27T19:36:47.767Z,85.61
2022-11-27T19:39:18.775Z,85.80
2022-11-27T19:41:49.755Z,85.99
2022-11-27T19:44:20.612Z,86.00
2022-11-27T19:46:51.525Z,86.10
2022-11-27T19:49:22.579Z,86.24
2022-11-27T19:51:53.669Z,86.26
2022-11-27T19:54:24.987Z,86.18
2022-11-27T19:56:55.936Z,85.94
2022-11-27T19:59:27.468Z,85.86
2022-11-27T20:01:58.702Z,85.94
2022-11-27T20:04:28.330Z,85.88
2022-11-27T20:06:59.472Z,85.88
2022-11-27T20:09:30.427Z,85.82
2022-11-27T20:12:01.804Z,85.74
2022-11-27T20:14:32.809Z,85.83
2022-11-27T20:17:03.957Z,85.64
2022-11-27T20:19:34.912Z,85.55
2022-11-27T20:22:05.942Z,85.54
2022-11-27T20:24:52.747Z,85.73
2022-11-27T20:27:28.513Z,85.79
2022-11-27T20:30:00.344Z,85.83
2022-11-27T20:32:29.667Z,85.76
2022-11-27T20:35:00.865Z,85.88
2022-11-27T20:37:31.762Z,85.91
2022-11-27T20:40:02.539Z,85.93
2022-11-27T20:42:33.596Z,85.82
2022-11-27T20:45:06.074Z,85.90
2022-11-27T20:47:37.366Z,85.84
2022-11-27T20:50:09.677Z,85.83
2022-11-27T20:52:40.462Z,85.68
2022-11-27T20:55:12.053Z,85.63
2022-11-27T20:57:41.530Z,85.73
2022-11-27T21:00:14.127Z,85.67
2022-11-27T21:02:44.922Z,85.71
2022-11-27T21:05:16.181Z,85.85
2022-11-27T21:07:47.671Z,86.08
2022-11-27T21:10:20.318Z,86.05
2022-11-27T21:12:51.526Z,85.86
2022-11-27T21:15:22.582Z,85.77
2022-11-27T21:17:53.549Z,85.78
2022-11-27T21:20:24.482Z,85.81
2022-11-27T21:22:55.782Z,86.03
2022-11-27T21:25:26.587Z,86.15
2022-11-27T21:27:58.215Z,86.17
2022-11-27T21:30:27.542Z,86.15
2022-11-27T21:32:58.670Z,85.89
2022-11-27T21:35:32.672Z,85.82
2022-11-27T21:38:05.105Z,85.79
2022-11-27T21:40:37.870Z,85.88
2022-11-27T21:43:08.722Z,85.74
2022-11-27T21:45:40.189Z,85.71
2022-11-27T21:48:14.293Z,85.62
2022-11-27T21:50:45.475Z,85.63
2022-11-27T21:53:16.386Z,85.69
2022-11-27T21:55:47.295Z,85.52
2022-11-27T21:58:18.225Z,85.52
2022-11-27T22:00:51.758Z,85.42
2022-11-27T22:03:22.913Z,85.44
2022-11-27T22:06:01.711Z,85.41
2022-11-27T22:11:23.276Z,85.51
2022-11-27T22:13:55.382Z,85.56
2022-11-27T22:16:28.130Z,85.56
2022-11-27T22:19:00.687Z,85.78
2022-11-27T22:21:33.388Z,85.92
2022-11-27T22:24:04.211Z,85.92
2022-11-27T22:26:35.086Z,85.99
2022-11-27T22:29:06.074Z,85.93
2022-11-27T22:31:37.550Z,85.77
2022-11-27T22:34:09.050Z,85.70
2022-11-27T22:36:40.251Z,85.64
2022-11-27T22:39:11.203Z,85.56
2022-11-27T22:41:42.776Z,85.49
2022-11-27T22:44:12.697Z,85.43
2022-11-27T22:46:44.542Z,85.43
2022-11-27T22:49:18.642Z,85.53
2022-11-27T22:51:49.956Z,85.52
2022-11-27T22:54:22.808Z,85.27
2022-11-27T22:56:53.646Z,85.37
2022-11-27T22:59:33.828Z,85.23
2022-11-27T23:02:06.679Z,85.51
2022-11-27T23:04:39.185Z,85.61
2022-11-27T23:07:11.056Z,85.59
2022-11-27T23:09:42.329Z,85.54
2022-11-27T23:12:13.109Z,85.46
2022-11-27T23:14:44.392Z,85.13
2022-11-27T23:17:15.551Z,85.22
2022-11-27T23:19:46.780Z,85.20
2022-11-27T23:22:17.836Z,85.29
2022-11-27T23:24:49.379Z,85.30
2022-11-27T23:27:20.286Z,85.31
2022-11-27T23:29:51.309Z,85.34
2022-11-27T23:32:22.547Z,85.32
2022-11-27T23:34:53.447Z,85.30
2022-11-27T23:37:24.550Z,85.31
2022-11-27T23:39:55.650Z,85.24
2022-11-27T23:42:26.713Z,85.17
2022-11-27T23:44:57.626Z,85.15
2022-11-27T23:47:28.541Z,85.26
2022-11-27T23:49:59.389Z,85.16
2022-11-27T23:52:30.330Z,85.12
2022-11-27T23:55:01.187Z,84.88
2022-11-27T23:57:32.425Z,84.93
